sensor_id;sensor_type;location;lat;lon;timestamp;P1;durP1;ratioP1;P2;durP2;ratioP2
18274;SDS011;19470;49.322;7.218;2023-04-06T00:01:31;7.20;;;3.93;;
18274;SDS011;19470;49.322;7.218;2023-04-06T00:03:58;8.37;;;4.70;;
18274;SDS011;19470;49.322;7.218;2023-04-06T00:06:24;9.00;;;4.83;;
18274;SDS011;19470;49.322;7.218;2023-04-06T00:08:51;8.80;;;4.47;;
18274;SDS011;19470;49.322;7.218;2023-04-06T00:11:18;7.97;;;4.90;;
18274;SDS011;19470;49.322;7.218;2023-04-06T00:13:44;8.00;;;4.33;;
18274;SDS011;19470;49.322;7.218;2023-04-06T00:16:12;6.27;;;4.20;;
18274;SDS011;19470;49.322;7.218;2023-04-06T00:18:39;11.00;;;4.43;;
18274;SDS011;19470;49.322;7.218;2023-04-06T00:21:06;8.17;;;4.60;;
18274;SDS011;19470;49.322;7.218;2023-04-06T00:23:32;8.60;;;4.60;;
18274;SDS011;19470;49.322;7.218;2023-04-06T00:25:59;21.10;;;9.77;;
18274;SDS011;19470;49.322;7.218;2023-04-06T00:28:25;8.40;;;4.47;;
18274;SDS011;19470;49.322;7.218;2023-04-06T00:30:53;6.60;;;4.30;;
18274;SDS011;19470;49.322;7.218;2023-04-06T00:33:22;7.07;;;4.40;;
18274;SDS011;19470;49.322;7.218;2023-04-06T00:35:49;8.10;;;4.53;;
18274;SDS011;19470;49.322;7.218;2023-04-06T00:38:16;6.43;;;4.33;;
18274;SDS011;19470;49.322;7.218;2023-04-06T00:40:43;7.80;;;4.20;;
18274;SDS011;19470;49.322;7.218;2023-04-06T00:43:10;8.37;;;4.13;;
18274;SDS011;19470;49.322;7.218;2023-04-06T00:45:37;9.97;;;4.63;;
18274;SDS011;19470;49.322;7.218;2023-04-06T00:48:04;9.53;;;4.87;;
18274;SDS011;19470;49.322;7.218;2023-04-06T00:50:32;8.07;;;4.67;;
18274;SDS011;19470;49.322;7.218;2023-04-06T00:52:59;7.27;;;4.80;;
18274;SDS011;19470;49.322;7.218;2023-04-06T00:55:26;8.13;;;4.17;;
18274;SDS011;19470;49.322;7.218;2023-04-06T00:57:53;8.83;;;4.77;;
18274;SDS011;19470;49.322;7.218;2023-04-06T01:00:20;9.20;;;4.53;;
18274;SDS011;19470;49.322;7.218;2023-04-06T01:02:47;8.53;;;4.17;;
18274;SDS011;19470;49.322;7.218;2023-04-06T01:05:14;9.17;;;4.70;;
18274;SDS011;19470;49.322;7.218;2023-04-06T01:07:42;7.57;;;4.47;;
18274;SDS011;19470;49.322;7.218;2023-04-06T01:10:09;7.90;;;4.53;;
18274;SDS011;19470;49.322;7.218;2023-04-06T01:12:36;11.20;;;5.20;;
18274;SDS011;19470;49.322;7.218;2023-04-06T01:15:04;8.07;;;4.87;;
18274;SDS011;19470;49.322;7.218;2023-04-06T01:17:31;10.50;;;4.77;;
18274;SDS011;19470;49.322;7.218;2023-04-06T01:19:58;8.30;;;4.70;;
18274;SDS011;19470;49.322;7.218;2023-04-06T01:22:26;7.67;;;5.07;;
18274;SDS011;19470;49.322;7.218;2023-04-06T01:24:52;7.33;;;4.43;;
18274;SDS011;19470;49.322;7.218;2023-04-06T01:27:19;8.33;;;5.00;;
18274;SDS011;19470;49.322;7.218;2023-04-06T01:29:45;7.07;;;4.30;;
18274;SDS011;19470;49.322;7.218;2023-04-06T01:32:12;8.87;;;4.90;;
18274;SDS011;19470;49.322;7.218;2023-04-06T01:34:38;8.10;;;4.63;;
18274;SDS011;19470;49.322;7.218;2023-04-06T01:37:05;6.97;;;4.67;;
18274;SDS011;19470;49.322;7.218;2023-04-06T01:39:33;5.87;;;4.50;;
18274;SDS011;19470;49.322;7.218;2023-04-06T01:41:59;7.43;;;4.37;;
18274;SDS011;19470;49.322;7.218;2023-04-06T01:44:26;13.67;;;5.80;;
18274;SDS011;19470;49.322;7.218;2023-04-06T01:46:55;7.17;;;4.50;;
18274;SDS011;19470;49.322;7.218;2023-04-06T01:49:21;7.97;;;5.03;;
18274;SDS011;19470;49.322;7.218;2023-04-06T01:51:48;9.33;;;5.13;;
18274;SDS011;19470;49.322;7.218;2023-04-06T01:54:14;11.17;;;5.17;;
18274;SDS011;19470;49.322;7.218;2023-04-06T01:56:42;9.37;;;5.33;;
18274;SDS011;19470;49.322;7.218;2023-04-06T01:59:09;7.97;;;5.40;;
18274;SDS011;19470;49.322;7.218;2023-04-06T02:01:35;7.90;;;5.13;;
18274;SDS011;19470;49.322;7.218;2023-04-06T02:04:01;8.30;;;5.10;;
18274;SDS011;19470;49.322;7.218;2023-04-06T02:06:28;9.60;;;5.23;;
18274;SDS011;19470;49.322;7.218;2023-04-06T02:08:55;9.97;;;5.33;;
18274;SDS011;19470;49.322;7.218;2023-04-06T02:11:21;8.53;;;5.63;;
18274;SDS011;19470;49.322;7.218;2023-04-06T02:13:49;10.87;;;5.43;;
18274;SDS011;19470;49.322;7.218;2023-04-06T02:16:15;9.23;;;5.23;;
18274;SDS011;19470;49.322;7.218;2023-04-06T02:18:42;8.73;;;5.10;;
18274;SDS011;19470;49.322;7.218;2023-04-06T02:21:08;7.30;;;5.13;;
18274;SDS011;19470;49.322;7.218;2023-04-06T02:23:35;9.87;;;5.07;;
18274;SDS011;19470;49.322;7.218;2023-04-06T02:26:02;9.43;;;5.73;;
18274;SDS011;19470;49.322;7.218;2023-04-06T02:28:28;7.30;;;4.93;;
18274;SDS011;19470;49.322;7.218;2023-04-06T02:30:56;9.90;;;5.70;;
18274;SDS011;19470;49.322;7.218;2023-04-06T02:33:23;7.93;;;5.23;;
18274;SDS011;19470;49.322;7.218;2023-04-06T02:35:49;7.90;;;5.20;;
18274;SDS011;19470;49.322;7.218;2023-04-06T02:38:16;9.13;;;6.03;;
18274;SDS011;19470;49.322;7.218;2023-04-06T02:40:42;11.53;;;5.87;;
18274;SDS011;19470;49.322;7.218;2023-04-06T02:43:08;9.50;;;5.97;;
18274;SDS011;19470;49.322;7.218;2023-04-06T02:45:35;8.40;;;5.80;;
18274;SDS011;19470;49.322;7.218;2023-04-06T02:48:03;13.70;;;8.13;;
18274;SDS011;19470;49.322;7.218;2023-04-06T02:50:30;57.40;;;26.70;;
18274;SDS011;19470;49.322;7.218;2023-04-06T02:52:57;10.97;;;7.00;;
18274;SDS011;19470;49.322;7.218;2023-04-06T02:55:23;8.30;;;5.53;;
18274;SDS011;19470;49.322;7.218;2023-04-06T02:57:50;7.93;;;5.47;;
18274;SDS011;19470;49.322;7.218;2023-04-06T03:00:16;12.80;;;5.83;;
18274;SDS011;19470;49.322;7.218;2023-04-06T03:02:43;9.13;;;5.50;;
18274;SDS011;19470;49.322;7.218;2023-04-06T03:05:11;9.17;;;5.73;;
18274;SDS011;19470;49.322;7.218;2023-04-06T03:07:37;9.37;;;6.07;;
18274;SDS011;19470;49.322;7.218;2023-04-06T03:10:05;8.57;;;5.50;;
18274;SDS011;19470;49.322;7.218;2023-04-06T03:12:32;14.73;;;5.87;;
18274;SDS011;19470;49.322;7.218;2023-04-06T03:14:58;9.77;;;5.77;;
18274;SDS011;19470;49.322;7.218;2023-04-06T03:17:25;8.83;;;6.00;;
18274;SDS011;19470;49.322;7.218;2023-04-06T03:19:51;13.23;;;5.97;;
18274;SDS011;19470;49.322;7.218;2023-04-06T03:22:19;11.23;;;6.27;;
18274;SDS011;19470;49.322;7.218;2023-04-06T03:24:46;11.23;;;6.60;;
18274;SDS011;19470;49.322;7.218;2023-04-06T03:27:12;10.30;;;6.30;;
18274;SDS011;19470;49.322;7.218;2023-04-06T03:33:01;15.00;;;6.17;;
18274;SDS011;19470;49.322;7.218;2023-04-06T03:35:27;10.77;;;6.43;;
18274;SDS011;19470;49.322;7.218;2023-04-06T03:37:55;10.03;;;6.23;;
18274;SDS011;19470;49.322;7.218;2023-04-06T03:40:22;7.13;;;5.20;;
18274;SDS011;19470;49.322;7.218;2023-04-06T03:42:49;11.20;;;6.03;;
18274;SDS011;19470;49.322;7.218;2023-04-06T03:45:16;10.47;;;5.70;;
18274;SDS011;19470;49.322;7.218;2023-04-06T03:47:42;8.30;;;5.77;;
18274;SDS011;19470;49.322;7.218;2023-04-06T03:50:09;9.07;;;5.80;;
18274;SDS011;19470;49.322;7.218;2023-04-06T03:52:36;9.43;;;5.83;;
18274;SDS011;19470;49.322;7.218;2023-04-06T03:55:04;12.10;;;6.50;;
18274;SDS011;19470;49.322;7.218;2023-04-06T03:57:32;10.80;;;6.10;;
18274;SDS011;19470;49.322;7.218;2023-04-06T04:00:03;11.93;;;6.67;;
18274;SDS011;19470;49.322;7.218;2023-04-06T04:02:31;9.10;;;5.87;;
18274;SDS011;19470;49.322;7.218;2023-04-06T04:04:57;9.83;;;6.33;;
18274;SDS011;19470;49.322;7.218;2023-04-06T04:07:24;11.63;;;6.17;;
18274;SDS011;19470;49.322;7.218;2023-04-06T04:09:50;10.37;;;6.13;;
18274;SDS011;19470;49.322;7.218;2023-04-06T04:12:18;9.57;;;6.43;;
18274;SDS011;19470;49.322;7.218;2023-04-06T04:14:44;10.97;;;6.33;;
18274;SDS011;19470;49.322;7.218;2023-04-06T04:17:11;9.87;;;6.43;;
18274;SDS011;19470;49.322;7.218;2023-04-06T04:19:37;13.63;;;6.50;;
18274;SDS011;19470;49.322;7.218;2023-04-06T04:22:04;11.80;;;6.83;;
18274;SDS011;19470;49.322;7.218;2023-04-06T04:24:32;10.47;;;6.57;;
18274;SDS011;19470;49.322;7.218;2023-04-06T04:26:59;9.70;;;5.63;;
18274;SDS011;19470;49.322;7.218;2023-04-06T04:29:28;11.70;;;5.97;;
18274;SDS011;19470;49.322;7.218;2023-04-06T04:31:54;9.60;;;6.20;;
18274;SDS011;19470;49.322;7.218;2023-04-06T04:34:21;11.47;;;7.10;;
18274;SDS011;19470;49.322;7.218;2023-04-06T04:36:50;12.23;;;6.57;;
18274;SDS011;19470;49.322;7.218;2023-04-06T04:39:16;13.20;;;6.50;;
18274;SDS011;19470;49.322;7.218;2023-04-06T04:41:43;11.33;;;6.63;;
18274;SDS011;19470;49.322;7.218;2023-04-06T04:44:09;10.63;;;6.73;;
18274;SDS011;19470;49.322;7.218;2023-04-06T04:46:37;11.57;;;6.57;;
18274;SDS011;19470;49.322;7.218;2023-04-06T04:49:04;15.23;;;7.20;;
18274;SDS011;19470;49.322;7.218;2023-04-06T04:54:52;15.57;;;7.30;;
18274;SDS011;19470;49.322;7.218;2023-04-06T04:57:18;11.17;;;7.00;;
18274;SDS011;19470;49.322;7.218;2023-04-06T04:59:45;11.63;;;6.93;;
18274;SDS011;19470;49.322;7.218;2023-04-06T05:02:13;10.20;;;6.43;;
18274;SDS011;19470;49.322;7.218;2023-04-06T05:04:39;10.37;;;6.20;;
18274;SDS011;19470;49.322;7.218;2023-04-06T05:07:06;42.73;;;20.13;;
18274;SDS011;19470;49.322;7.218;2023-04-06T05:09:33;87.80;;;40.10;;
18274;SDS011;19470;49.322;7.218;2023-04-06T05:12:00;13.40;;;6.93;;
18274;SDS011;19470;49.322;7.218;2023-04-06T05:14:27;11.23;;;6.70;;
18274;SDS011;19470;49.322;7.218;2023-04-06T05:16:54;11.20;;;6.77;;
18274;SDS011;19470;49.322;7.218;2023-04-06T05:19:22;15.73;;;6.80;;
18274;SDS011;19470;49.322;7.218;2023-04-06T05:21:48;10.90;;;7.10;;
18274;SDS011;19470;49.322;7.218;2023-04-06T05:24:15;10.97;;;6.93;;
18274;SDS011;19470;49.322;7.218;2023-04-06T05:26:41;63.17;;;28.70;;
18274;SDS011;19470;49.322;7.218;2023-04-06T05:29:08;88.67;;;36.97;;
18274;SDS011;19470;49.322;7.218;2023-04-06T05:31:34;46.33;;;21.67;;
18274;SDS011;19470;49.322;7.218;2023-04-06T05:34:01;45.70;;;23.73;;
18274;SDS011;19470;49.322;7.218;2023-04-06T05:36:29;41.20;;;20.57;;
18274;SDS011;19470;49.322;7.218;2023-04-06T05:38:55;11.40;;;7.53;;
18274;SDS011;19470;49.322;7.218;2023-04-06T05:41:22;14.63;;;7.43;;
18274;SDS011;19470;49.322;7.218;2023-04-06T05:43:49;11.73;;;7.07;;
18274;SDS011;19470;49.322;7.218;2023-04-06T05:46:16;10.57;;;7.00;;
18274;SDS011;19470;49.322;7.218;2023-04-06T05:48:42;11.93;;;7.70;;
18274;SDS011;19470;49.322;7.218;2023-04-06T05:51:09;11.50;;;6.80;;
18274;SDS011;19470;49.322;7.218;2023-04-06T05:53:37;12.90;;;7.30;;
18274;SDS011;19470;49.322;7.218;2023-04-06T05:56:04;9.87;;;6.97;;
18274;SDS011;19470;49.322;7.218;2023-04-06T05:58:31;13.20;;;8.20;;
18274;SDS011;19470;49.322;7.218;2023-04-06T06:00:57;41.33;;;22.77;;
18274;SDS011;19470;49.322;7.218;2023-04-06T06:03:24;37.37;;;18.40;;
18274;SDS011;19470;49.322;7.218;2023-04-06T06:05:51;10.80;;;7.40;;
18274;SDS011;19470;49.322;7.218;2023-04-06T06:08:18;11.77;;;8.00;;
18274;SDS011;19470;49.322;7.218;2023-04-06T06:10:45;13.20;;;8.70;;
18274;SDS011;19470;49.322;7.218;2023-04-06T06:13:12;16.73;;;8.90;;
18274;SDS011;19470;49.322;7.218;2023-04-06T06:15:38;14.40;;;8.13;;
18274;SDS011;19470;49.322;7.218;2023-04-06T06:18:05;11.57;;;7.47;;
18274;SDS011;19470;49.322;7.218;2023-04-06T06:20:31;34.13;;;18.60;;
18274;SDS011;19470;49.322;7.218;2023-04-06T06:22:58;16.27;;;8.13;;
18274;SDS011;19470;49.322;7.218;2023-04-06T06:25:24;21.90;;;9.63;;
18274;SDS011;19470;49.322;7.218;2023-04-06T06:27:52;17.30;;;9.43;;
18274;SDS011;19470;49.322;7.218;2023-04-06T06:30:19;15.13;;;8.60;;
18274;SDS011;19470;49.322;7.218;2023-04-06T06:32:45;13.67;;;8.33;;
18274;SDS011;19470;49.322;7.218;2023-04-06T06:35:12;14.70;;;7.90;;
18274;SDS011;19470;49.322;7.218;2023-04-06T06:37:38;16.07;;;8.97;;
18274;SDS011;19470;49.322;7.218;2023-04-06T06:40:05;26.67;;;10.97;;
18274;SDS011;19470;49.322;7.218;2023-04-06T06:42:32;17.05;;;9.45;;
18274;SDS011;19470;49.322;7.218;2023-04-06T06:45:00;14.70;;;9.57;;
18274;SDS011;19470;49.322;7.218;2023-04-06T06:47:27;15.73;;;8.30;;
18274;SDS011;19470;49.322;7.218;2023-04-06T06:49:54;12.90;;;8.27;;
18274;SDS011;19470;49.322;7.218;2023-04-06T06:52:21;16.83;;;9.05;;
18274;SDS011;19470;49.322;7.218;2023-04-06T06:54:49;11.48;;;9.88;;
18274;SDS011;19470;49.322;7.218;2023-04-06T06:57:15;14.57;;;10.82;;
18274;SDS011;19470;49.322;7.218;2023-04-06T06:59:42;17.60;;;15.90;;
18274;SDS011;19470;49.322;7.218;2023-04-06T07:02:09;20.05;;;18.38;;
18274;SDS011;19470;49.322;7.218;2023-04-06T07:04:36;22.67;;;20.95;;
18274;SDS011;19470;49.322;7.218;2023-04-06T07:07:02;19.92;;;18.15;;
18274;SDS011;19470;49.322;7.218;2023-04-06T07:09:29;31.52;;;28.85;;
18274;SDS011;19470;49.322;7.218;2023-04-06T07:11:56;38.90;;;36.30;;
18274;SDS011;19470;49.322;7.218;2023-04-06T07:14:22;48.97;;;45.83;;
18274;SDS011;19470;49.322;7.218;2023-04-06T07:16:49;58.75;;;55.05;;
18274;SDS011;19470;49.322;7.218;2023-04-06T07:19:17;124.75;;;114.25;;
18274;SDS011;19470;49.322;7.218;2023-04-06T07:21:43;99.22;;;91.75;;
18274;SDS011;19470;49.322;7.218;2023-04-06T07:24:10;112.90;;;105.47;;
18274;SDS011;19470;49.322;7.218;2023-04-06T07:26:36;104.15;;;98.45;;
18274;SDS011;19470;49.322;7.218;2023-04-06T07:29:03;100.72;;;95.18;;
18274;SDS011;19470;49.322;7.218;2023-04-06T07:31:29;95.20;;;90.10;;
18274;SDS011;19470;49.322;7.218;2023-04-06T07:33:56;58.45;;;54.95;;
18274;SDS011;19470;49.322;7.218;2023-04-06T07:36:24;59.72;;;56.20;;
18274;SDS011;19470;49.322;7.218;2023-04-06T07:38:50;54.33;;;51.05;;
18274;SDS011;19470;49.322;7.218;2023-04-06T07:41:17;52.22;;;49.22;;
18274;SDS011;19470;49.322;7.218;2023-04-06T07:43:43;56.45;;;53.15;;
18274;SDS011;19470;49.322;7.218;2023-04-06T07:46:10;57.53;;;54.22;;
18274;SDS011;19470;49.322;7.218;2023-04-06T07:48:36;51.83;;;48.72;;
18274;SDS011;19470;49.322;7.218;2023-04-06T07:51:04;59.83;;;56.10;;
18274;SDS011;19470;49.322;7.218;2023-04-06T07:53:32;61.90;;;58.40;;
18274;SDS011;19470;49.322;7.218;2023-04-06T07:55:59;57.70;;;54.58;;
18274;SDS011;19470;49.322;7.218;2023-04-06T07:58:26;55.92;;;52.63;;
18274;SDS011;19470;49.322;7.218;2023-04-06T08:00:52;55.72;;;52.63;;
18274;SDS011;19470;49.322;7.218;2023-04-06T08:03:19;61.40;;;57.53;;
18274;SDS011;19470;49.322;7.218;2023-04-06T08:05:50;64.35;;;60.65;;
18274;SDS011;19470;49.322;7.218;2023-04-06T08:08:16;58.83;;;55.25;;
18274;SDS011;19470;49.322;7.218;2023-04-06T08:10:44;61.60;;;58.10;;
18274;SDS011;19470;49.322;7.218;2023-04-06T08:13:11;72.22;;;68.00;;
18274;SDS011;19470;49.322;7.218;2023-04-06T08:15:37;121.53;;;115.32;;
18274;SDS011;19470;49.322;7.218;2023-04-06T08:18:04;95.57;;;90.70;;
18274;SDS011;19470;49.322;7.218;2023-04-06T08:20:31;116.18;;;110.18;;
18274;SDS011;19470;49.322;7.218;2023-04-06T08:22:57;135.35;;;128.45;;
18274;SDS011;19470;49.322;7.218;2023-04-06T08:25:24;147.82;;;140.23;;
18274;SDS011;19470;49.322;7.218;2023-04-06T08:27:52;169.85;;;161.25;;
18274;SDS011;19470;49.322;7.218;2023-04-06T08:30:18;129.70;;;123.13;;
18274;SDS011;19470;49.322;7.218;2023-04-06T08:32:45;125.68;;;119.28;;
18274;SDS011;19470;49.322;7.218;2023-04-06T08:35:12;96.07;;;90.93;;
18274;SDS011;19470;49.322;7.218;2023-04-06T08:37:38;152.30;;;144.52;;
18274;SDS011;19470;49.322;7.218;2023-04-06T08:40:06;125.00;;;118.55;;
18274;SDS011;19470;49.322;7.218;2023-04-06T08:42:33;110.00;;;104.25;;
18274;SDS011;19470;49.322;7.218;2023-04-06T08:45:08;154.77;;;146.50;;
18274;SDS011;19470;49.322;7.218;2023-04-06T08:47:35;140.88;;;133.38;;
18274;SDS011;19470;49.322;7.218;2023-04-06T08:50:02;128.73;;;121.88;;
18274;SDS011;19470;49.322;7.218;2023-04-06T08:52:30;175.88;;;166.63;;
18274;SDS011;19470;49.322;7.218;2023-04-06T08:54:58;102.72;;;96.88;;
18274;SDS011;19470;49.322;7.218;2023-04-06T08:57:24;96.88;;;91.65;;
18274;SDS011;19470;49.322;7.218;2023-04-06T08:59:52;78.07;;;73.60;;
18274;SDS011;19470;49.322;7.218;2023-04-06T09:02:22;70.63;;;66.72;;
18274;SDS011;19470;49.322;7.218;2023-04-06T09:04:50;131.43;;;124.38;;
18274;SDS011;19470;49.322;7.218;2023-04-06T09:07:19;148.35;;;140.32;;
18274;SDS011;19470;49.322;7.218;2023-04-06T09:09:46;106.72;;;100.95;;
18274;SDS011;19470;49.322;7.218;2023-04-06T09:12:21;162.77;;;154.07;;
18274;SDS011;19470;49.322;7.218;2023-04-06T09:14:48;106.85;;;100.82;;
18274;SDS011;19470;49.322;7.218;2023-04-06T09:17:19;96.05;;;90.93;;
18274;SDS011;19470;49.322;7.218;2023-04-06T09:19:48;103.80;;;98.10;;
18274;SDS011;19470;49.322;7.218;2023-04-06T09:22:14;86.20;;;81.50;;
18274;SDS011;19470;49.322;7.218;2023-04-06T09:24:41;133.05;;;126.13;;
18274;SDS011;19470;49.322;7.218;2023-04-06T09:27:09;165.90;;;157.27;;
18274;SDS011;19470;49.322;7.218;2023-04-06T09:29:35;170.00;;;160.68;;
18274;SDS011;19470;49.322;7.218;2023-04-06T09:32:03;155.35;;;147.38;;
18274;SDS011;19470;49.322;7.218;2023-04-06T09:34:30;147.18;;;139.60;;
18274;SDS011;19470;49.322;7.218;2023-04-06T09:36:59;153.23;;;144.95;;
18274;SDS011;19470;49.322;7.218;2023-04-06T09:39:26;144.23;;;136.43;;
18274;SDS011;19470;49.322;7.218;2023-04-06T09:41:53;140.63;;;132.13;;
18274;SDS011;19470;49.322;7.218;2023-04-06T09:44:20;144.95;;;137.55;;
18274;SDS011;19470;49.322;7.218;2023-04-06T09:46:48;127.72;;;120.95;;
18274;SDS011;19470;49.322;7.218;2023-04-06T09:49:19;158.38;;;150.05;;
18274;SDS011;19470;49.322;7.218;2023-04-06T09:51:47;156.95;;;148.60;;
18274;SDS011;19470;49.322;7.218;2023-04-06T09:54:21;159.25;;;150.73;;
18274;SDS011;19470;49.322;7.218;2023-04-06T09:56:50;134.40;;;127.13;;
18274;SDS011;19470;49.322;7.218;2023-04-06T09:59:21;131.38;;;124.40;;
18274;SDS011;19470;49.322;7.218;2023-04-06T10:01:56;137.02;;;129.63;;
18274;SDS011;19470;49.322;7.218;2023-04-06T10:04:28;160.75;;;152.30;;
18274;SDS011;19470;49.322;7.218;2023-04-06T10:07:04;172.20;;;163.15;;
18274;SDS011;19470;49.322;7.218;2023-04-06T10:09:34;137.43;;;130.45;;
18274;SDS011;19470;49.322;7.218;2023-04-06T10:12:03;134.35;;;127.22;;
18274;SDS011;19470;49.322;7.218;2023-04-06T10:14:31;131.52;;;124.68;;
18274;SDS011;19470;49.322;7.218;2023-04-06T10:16:59;145.55;;;138.00;;
18274;SDS011;19470;49.322;7.218;2023-04-06T10:19:27;133.70;;;126.95;;
18274;SDS011;19470;49.322;7.218;2023-04-06T10:22:00;125.45;;;119.10;;
18274;SDS011;19470;49.322;7.218;2023-04-06T10:24:29;134.73;;;127.93;;
18274;SDS011;19470;49.322;7.218;2023-04-06T10:27:00;135.82;;;128.73;;
18274;SDS011;19470;49.322;7.218;2023-04-06T10:29:27;160.52;;;152.00;;
18274;SDS011;19470;49.322;7.218;2023-04-06T10:31:54;148.05;;;140.15;;
18274;SDS011;19470;49.322;7.218;2023-04-06T10:34:21;153.65;;;145.70;;
18274;SDS011;19470;49.322;7.218;2023-04-06T10:36:47;162.75;;;154.23;;
18274;SDS011;19470;49.322;7.218;2023-04-06T10:39:14;160.05;;;151.65;;
18274;SDS011;19470;49.322;7.218;2023-04-06T10:41:50;202.27;;;190.50;;
18274;SDS011;19470;49.322;7.218;2023-04-06T10:44:18;191.50;;;181.02;;
18274;SDS011;19470;49.322;7.218;2023-04-06T10:46:52;142.68;;;134.95;;
18274;SDS011;19470;49.322;7.218;2023-04-06T10:49:19;159.45;;;151.05;;
18274;SDS011;19470;49.322;7.218;2023-04-06T10:51:50;278.92;;;263.10;;
18274;SDS011;19470;49.322;7.218;2023-04-06T10:54:17;159.57;;;151.43;;
18274;SDS011;19470;49.322;7.218;2023-04-06T10:56:47;203.15;;;192.75;;
18274;SDS011;19470;49.322;7.218;2023-04-06T10:59:14;192.68;;;182.88;;
18274;SDS011;19470;49.322;7.218;2023-04-06T11:01:46;219.60;;;208.57;;
18274;SDS011;19470;49.322;7.218;2023-04-06T11:04:15;221.98;;;210.73;;
18274;SDS011;19470;49.322;7.218;2023-04-06T11:06:45;238.00;;;225.82;;
18274;SDS011;19470;49.322;7.218;2023-04-06T11:09:22;236.68;;;224.77;;
18274;SDS011;19470;49.322;7.218;2023-04-06T11:11:49;266.80;;;253.02;;
18274;SDS011;19470;49.322;7.218;2023-04-06T11:14:17;248.13;;;235.65;;
18274;SDS011;19470;49.322;7.218;2023-04-06T11:16:47;229.63;;;217.85;;
18274;SDS011;19470;49.322;7.218;2023-04-06T11:19:14;244.82;;;232.35;;
18274;SDS011;19470;49.322;7.218;2023-04-06T11:21:42;274.75;;;260.73;;
18274;SDS011;19470;49.322;7.218;2023-04-06T11:24:13;188.93;;;179.23;;
18274;SDS011;19470;49.322;7.218;2023-04-06T11:26:41;212.85;;;202.10;;
18274;SDS011;19470;49.322;7.218;2023-04-06T11:29:10;219.15;;;207.88;;
18274;SDS011;19470;49.322;7.218;2023-04-06T11:31:37;231.68;;;220.10;;
18274;SDS011;19470;49.322;7.218;2023-04-06T11:34:10;238.15;;;226.02;;
18274;SDS011;19470;49.322;7.218;2023-04-06T11:36:42;231.60;;;219.82;;
18274;SDS011;19470;49.322;7.218;2023-04-06T11:39:09;168.82;;;160.23;;
18274;SDS011;19470;49.322;7.218;2023-04-06T11:41:36;198.48;;;188.15;;
18274;SDS011;19470;49.322;7.218;2023-04-06T11:44:03;194.43;;;184.35;;
18274;SDS011;19470;49.322;7.218;2023-04-06T11:46:29;189.95;;;180.18;;
18274;SDS011;19470;49.322;7.218;2023-04-06T11:48:57;210.35;;;199.38;;
18274;SDS011;19470;49.322;7.218;2023-04-06T11:51:26;218.23;;;207.02;;
18274;SDS011;19470;49.322;7.218;2023-04-06T11:53:52;166.75;;;157.88;;
18274;SDS011;19470;49.322;7.218;2023-04-06T11:56:23;160.75;;;152.40;;
18274;SDS011;19470;49.322;7.218;2023-04-06T11:58:50;163.02;;;154.50;;
18274;SDS011;19470;49.322;7.218;2023-04-06T12:01:17;187.90;;;178.07;;
18274;SDS011;19470;49.322;7.218;2023-04-06T12:03:43;152.63;;;144.60;;
18274;SDS011;19470;49.322;7.218;2023-04-06T12:06:10;218.82;;;205.45;;
18274;SDS011;19470;49.322;7.218;2023-04-06T12:08:38;169.60;;;160.60;;
18274;SDS011;19470;49.322;7.218;2023-04-06T12:11:05;200.85;;;190.00;;
18274;SDS011;19470;49.322;7.218;2023-04-06T12:13:32;180.50;;;170.82;;
18274;SDS011;19470;49.322;7.218;2023-04-06T12:15:58;192.05;;;182.10;;
18274;SDS011;19470;49.322;7.218;2023-04-06T12:18:25;182.40;;;172.98;;
18274;SDS011;19470;49.322;7.218;2023-04-06T12:20:51;196.32;;;186.27;;
18274;SDS011;19470;49.322;7.218;2023-04-06T12:23:18;190.50;;;180.52;;
18274;SDS011;19470;49.322;7.218;2023-04-06T12:25:46;205.15;;;194.48;;
18274;SDS011;19470;49.322;7.218;2023-04-06T12:28:12;241.85;;;229.30;;
18274;SDS011;19470;49.322;7.218;2023-04-06T12:30:39;195.68;;;185.57;;
18274;SDS011;19470;49.322;7.218;2023-04-06T12:33:06;167.30;;;158.40;;
18274;SDS011;19470;49.322;7.218;2023-04-06T12:35:33;156.73;;;148.52;;
18274;SDS011;19470;49.322;7.218;2023-04-06T12:38:00;175.00;;;165.68;;
18274;SDS011;19470;49.322;7.218;2023-04-06T12:40:26;204.85;;;194.00;;
18274;SDS011;19470;49.322;7.218;2023-04-06T12:42:54;198.90;;;188.07;;
18274;SDS011;19470;49.322;7.218;2023-04-06T12:45:21;152.80;;;144.50;;
18274;SDS011;19470;49.322;7.218;2023-04-06T12:47:47;327.15;;;308.35;;
18274;SDS011;19470;49.322;7.218;2023-04-06T12:50:14;153.70;;;145.57;;
18274;SDS011;19470;49.322;7.218;2023-04-06T12:52:40;118.22;;;111.80;;
18274;SDS011;19470;49.322;7.218;2023-04-06T12:55:07;140.07;;;132.50;;
18274;SDS011;19470;49.322;7.218;2023-04-06T12:57:34;168.55;;;159.05;;
18274;SDS011;19470;49.322;7.218;2023-04-06T13:00:04;110.63;;;104.50;;
18274;SDS011;19470;49.322;7.218;2023-04-06T13:02:31;129.10;;;122.10;;
18274;SDS011;19470;49.322;7.218;2023-04-06T13:04:57;168.18;;;158.55;;
18274;SDS011;19470;49.322;7.218;2023-04-06T13:07:24;62.30;;;58.47;;
18274;SDS011;19470;49.322;7.218;2023-04-06T13:09:51;58.95;;;55.50;;
18274;SDS011;19470;49.322;7.218;2023-04-06T13:12:18;79.20;;;74.78;;
18274;SDS011;19470;49.322;7.218;2023-04-06T13:14:45;102.88;;;97.38;;
18274;SDS011;19470;49.322;7.218;2023-04-06T13:17:17;86.95;;;82.20;;
18274;SDS011;19470;49.322;7.218;2023-04-06T13:19:43;108.88;;;103.25;;
18274;SDS011;19470;49.322;7.218;2023-04-06T13:22:10;107.35;;;101.65;;
18274;SDS011;19470;49.322;7.218;2023-04-06T13:24:36;118.40;;;112.22;;
18274;SDS011;19470;49.322;7.218;2023-04-06T13:27:03;94.55;;;89.30;;
18274;SDS011;19470;49.322;7.218;2023-04-06T13:29:30;91.57;;;86.45;;
18274;SDS011;19470;49.322;7.218;2023-04-06T13:31:56;88.70;;;83.20;;
18274;SDS011;19470;49.322;7.218;2023-04-06T13:34:24;76.20;;;71.78;;
18274;SDS011;19470;49.322;7.218;2023-04-06T13:36:51;52.22;;;49.03;;
18274;SDS011;19470;49.322;7.218;2023-04-06T13:39:17;103.55;;;98.07;;
18274;SDS011;19470;49.322;7.218;2023-04-06T13:41:44;102.68;;;96.75;;
18274;SDS011;19470;49.322;7.218;2023-04-06T13:44:11;84.65;;;79.88;;
18274;SDS011;19470;49.322;7.218;2023-04-06T13:46:37;69.38;;;65.57;;
18274;SDS011;19470;49.322;7.218;2023-04-06T13:49:04;88.47;;;83.38;;
18274;SDS011;19470;49.322;7.218;2023-04-06T13:51:31;73.82;;;69.68;;
18274;SDS011;19470;49.322;7.218;2023-04-06T13:53:58;64.20;;;60.17;;
18274;SDS011;19470;49.322;7.218;2023-04-06T13:56:24;71.38;;;67.28;;
18274;SDS011;19470;49.322;7.218;2023-04-06T13:58:53;70.32;;;66.38;;
18274;SDS011;19470;49.322;7.218;2023-04-06T14:01:19;90.35;;;85.28;;
18274;SDS011;19470;49.322;7.218;2023-04-06T14:03:46;92.78;;;87.75;;
18274;SDS011;19470;49.322;7.218;2023-04-06T14:06:14;79.90;;;75.25;;
18274;SDS011;19470;49.322;7.218;2023-04-06T14:08:42;99.68;;;94.28;;
18274;SDS011;19470;49.322;7.218;2023-04-06T14:11:10;174.57;;;163.88;;
18274;SDS011;19470;49.322;7.218;2023-04-06T14:13:37;86.22;;;81.40;;
18274;SDS011;19470;49.322;7.218;2023-04-06T14:16:04;90.32;;;85.43;;
18274;SDS011;19470;49.322;7.218;2023-04-06T14:18:31;93.47;;;88.40;;
18274;SDS011;19470;49.322;7.218;2023-04-06T14:20:59;96.13;;;90.88;;
18274;SDS011;19470;49.322;7.218;2023-04-06T14:23:26;98.78;;;93.15;;
18274;SDS011;19470;49.322;7.218;2023-04-06T14:26:01;80.18;;;74.35;;
18274;SDS011;19470;49.322;7.218;2023-04-06T14:28:29;85.80;;;81.28;;